Eastern Oregon Regional At Pendleton Airport Pendleton US
ICAO: KPDT
IATA: PDT
Category: Medium
Scheduled Services: No

Elevation: 1497 ft
TransAlt. 18000 ft.

Airport Communications:
CHINOOK APP/DEP:133.15
ASOS:118.325
CTAF:119.7
GND:121.9
ARNG OPS:40.9
MC MINNVILLE RDO:122.2
PENDLETON TWR:119.7
UNICOM:122.95

KPDT Zoom In..

Runways:

(A) RW 07 length 6301 ft width 150 ft
---- / hdg 74

(B) RW 11 length 5581 ft width 100 ft
---- / hdg 112

(C) RW 16 length 4341 ft width 60 ft
---- / hdg 163

(D) RW 25 length 6301 ft width 150 ft
ILS 110.30 / hdg 254

(E) RW 29 length 5581 ft width 100 ft
---- / hdg 292

(F) RW 34 length 4341 ft width 60 ft
---- / hdg 343

Location; KPDT
Day. 26 / Time. 03.53 Zulu
* Altimeter: 29.84
* Temperature: 18° c. 64.4°f.
* Wind from: 230° Speed 16 kn.
Dewpoint: 11° c.
Visibility: 9 Statute Miles.
Clouds: Broken 7000 ft.
Clouds: Overcast 8500 ft.
Conditions: Light Rain.

KPDT 260353Z AUTO 23016KT 9SM -RA BKN070 OVC085 18/11 A2984 RMK AO2 PK WND 27027/0319 RAB48 SLP094 P0000 T01830111 TSNO


Wind From 230°
Speed 16 kn.

 
 
jpsmedia.com for Web Design SOUNDCLOUD worldairports.se 2018   terms of use